Shaw Crest, New Jersey
Current Conditions -  °F | °C
As of 1:55 AM on Sunday 26 Oct 2014 (Local Time) from KWWD Reporting Station
Clear Clear  
Wind Chill: 59°   Ceiling: Unl
Heat Index: 59°   Visibility: 10mi
Dew Point: 46°   Wind: 14mph
Humidity: 63%   Direction: 240°WSW
Pressure: 29.65"   Gusts: 17mph
Location:  38.9808°N, 74.8281°W
Report Text: KWWD 260555Z AUTO 24012G15KT 10SM CLR 15/08 A2965 RMK AO1 10160 20150 57020
Loading
Personal Weather Stations






























Interactive Weather Map
Tropical Storm Tracking
New forecast layout! Learn more

10-Day Weather Forecast

Advertisements
Track Severe Weather on mobile